Time;durP1;ratioP1;P1;durP2;ratioP2;P2;SDS_P1;SDS_P2;PMS_P1;PMS_P2;Temp;Humidity;BMP_temperature;BMP_pressure;BME280_temperature;BME280_humidity;BME280_pressure;Samples;Min_cycle;Max_cycle;Signal;HPM_P1;HPM_P2
2022/11/12 00:02:59;;;;;;;26.80;13.90;;;;;;;12.67;100.00;101666.16;641702;1312;139001;-82
2022/11/12 00:18:21;;;;;;;24.00;13.20;;;;;;;12.65;100.00;101671.73;641135;1312;139054;-81
2022/11/12 00:33:43;;;;;;;26.30;15.50;;;;;;;12.60;100.00;101674.77;640961;1312;139656;-81
2022/11/12 00:49:05;;;;;;;24.60;16.70;;;;;;;12.54;100.00;101685.17;639707;1312;139128;-80
2022/11/12 01:04:27;;;;;;;24.00;14.60;;;;;;;12.51;100.00;101683.46;639719;1312;139081;-79
2022/11/12 01:19:50;;;;;;;21.20;13.80;;;;;;;12.44;100.00;101684.16;640256;1306;139802;-82
2022/11/12 01:35:12;;;;;;;23.00;12.70;;;;;;;12.37;100.00;101693.46;639977;1312;139165;-82
2022/11/12 01:50:36;;;;;;;21.90;12.90;;;;;;;12.40;100.00;101697.08;639914;1312;140566;-80
2022/11/12 02:06:06;;;;;;;22.70;12.80;;;;;;;12.37;100.00;101697.68;640237;1312;139147;-83
2022/11/12 02:21:30;;;;;;;20.20;11.90;;;;;;;12.33;100.00;101706.20;640291;1305;139481;-79
2022/11/12 02:36:52;;;;;;;28.90;13.80;;;;;;;12.28;100.00;101714.12;639470;1312;139739;-80
2022/11/12 02:52:14;;;;;;;19.60;12.80;;;;;;;12.16;100.00;101736.89;639566;1311;139379;-78
2022/11/12 03:07:37;;;;;;;20.20;12.40;;;;;;;12.13;100.00;101728.46;640148;1312;139436;-77
2022/11/12 03:23:02;;;;;;;20.60;13.20;;;;;;;12.08;100.00;101735.50;640278;1312;139414;-84
2022/11/12 03:38:24;;;;;;;17.10;12.00;;;;;;;12.13;100.00;101736.42;640026;1312;139354;-78
2022/11/12 03:53:47;;;;;;;17.70;11.10;;;;;;;12.03;100.00;101734.30;640418;1313;139559;-79
2022/11/12 04:09:08;;;;;;;22.50;12.50;;;;;;;12.04;100.00;101730.57;640820;1313;139513;-78
2022/11/12 04:56:13;;;;;;;19.30;11.80;;;;;;;11.94;100.00;101729.63;639858;1311;139040;-83
2022/11/12 05:11:35;;;;;;;18.60;12.70;;;;;;;11.93;100.00;101727.98;640216;1312;139496;-78
2022/11/12 05:26:57;;;;;;;27.10;17.60;;;;;;;11.89;100.00;101727.05;640189;1312;139665;-82
2022/11/12 05:42:20;;;;;;;18.30;10.70;;;;;;;11.87;100.00;101730.48;640856;1313;139691;-77
2022/11/12 05:57:41;;;;;;;16.60;10.60;;;;;;;11.82;100.00;101745.15;640678;1311;139900;-82
2022/11/12 06:13:03;;;;;;;19.80;10.90;;;;;;;11.90;100.00;101757.27;641002;1313;140241;-83
2022/11/12 06:28:26;;;;;;;18.00;11.30;;;;;;;11.86;100.00;101762.11;640846;1312;139647;-78
2022/11/12 06:43:49;;;;;;;64.10;31.50;;;;;;;11.91;100.00;101776.31;640635;1312;139444;-79
2022/11/12 06:59:11;;;;;;;27.60;17.90;;;;;;;11.95;100.00;101783.96;640574;1309;139640;-80
2022/11/12 07:14:33;;;;;;;27.60;16.70;;;;;;;11.97;100.00;101797.48;639760;1312;139877;-79
2022/11/12 07:29:55;;;;;;;16.60;10.60;;;;;;;12.05;100.00;101797.65;639583;1311;139807;-84
2022/11/12 07:45:17;;;;;;;20.60;9.80;;;;;;;12.15;100.00;101786.44;640756;1313;139383;-79
2022/11/12 08:00:39;;;;;;;22.10;12.60;;;;;;;12.16;100.00;101801.41;640419;1312;139496;-79
2022/11/12 08:16:02;;;;;;;20.20;11.00;;;;;;;12.38;100.00;101813.93;640454;1312;139371;-80
2022/11/12 08:31:25;;;;;;;21.70;12.30;;;;;;;12.46;100.00;101827.05;642654;1312;139328;-81
2022/11/12 08:46:49;;;;;;;28.80;13.60;;;;;;;12.56;100.00;101832.83;641195;1300;139449;-79
2022/11/12 09:02:12;;;;;;;25.00;13.90;;;;;;;12.62;100.00;101847.61;639996;1304;139525;-83
2022/11/12 09:17:34;;;;;;;25.50;14.70;;;;;;;12.79;100.00;101868.91;640366;1307;139754;-80
2022/11/12 09:32:57;;;;;;;22.10;12.70;;;;;;;12.92;100.00;101875.70;641949;1307;139296;-77
2022/11/12 09:48:33;;;;;;;18.70;10.80;;;;;;;12.91;100.00;101866.98;641025;1312;139532;-78
2022/11/12 10:04:17;;;;;;;25.60;12.80;;;;;;;12.99;100.00;101868.35;640727;1309;139296;-85
2022/11/12 10:19:51;;;;;;;19.60;10.30;;;;;;;13.11;100.00;101870.80;640465;1312;139407;-80
2022/11/12 10:35:19;;;;;;;23.30;9.90;;;;;;;13.26;100.00;101859.69;640468;1312;139743;-86
2022/11/12 10:50:42;;;;;;;101.40;43.50;;;;;;;13.39;100.00;101847.83;640989;1311;139202;-84
2022/11/12 11:06:20;;;;;;;58.50;29.30;;;;;;;13.61;100.00;101829.16;639911;1312;140139;-83
2022/11/12 11:21:56;;;;;;;28.90;17.10;;;;;;;13.83;100.00;101821.81;639565;1312;139273;-84
2022/11/12 11:37:27;;;;;;;29.70;17.30;;;;;;;14.01;100.00;101829.74;639638;1312;139648;-81
2022/11/12 11:53:04;;;;;;;18.30;8.10;;;;;;;14.06;100.00;101836.58;640071;1288;139588;-80
2022/11/12 12:08:35;;;;;;;18.40;11.50;;;;;;;14.09;100.00;101838.50;640881;1312;139487;-83
2022/11/12 12:24:04;;;;;;;21.20;13.00;;;;;;;14.17;100.00;101839.60;640690;1312;140048;-80
2022/11/12 12:39:41;;;;;;;44.40;21.10;;;;;;;14.21;100.00;101835.77;639678;1307;139305;-87
2022/11/12 12:55:37;;;;;;;22.50;13.40;;;;;;;14.20;100.00;101838.88;640445;1311;139419;-81
2022/11/12 13:10:59;;;;;;;121.10;73.60;;;;;;;14.23;100.00;101840.04;640277;1306;139879;-83
2022/11/12 13:26:45;;;;;;;64.20;24.80;;;;;;;14.40;100.00;101853.59;639543;1312;139782;-81
2022/11/12 13:57:55;;;;;;;35.20;21.00;;;;;;;14.10;100.00;101858.62;640698;1313;139269;-80
2022/11/12 14:13:33;;;;;;;31.50;20.00;;;;;;;13.95;100.00;101861.89;640414;1304;139270;-80
2022/11/12 14:28:56;;;;;;;50.80;32.30;;;;;;;13.89;100.00;101863.98;641275;1312;139316;-81
2022/11/12 14:44:22;;;;;;;75.00;39.10;;;;;;;13.84;100.00;101872.40;644259;1312;139396;-83
2022/11/12 14:59:44;;;;;;;74.30;33.70;;;;;;;13.76;100.00;101887.98;639873;1312;139446;-80
2022/11/12 15:15:17;;;;;;;107.40;51.60;;;;;;;13.71;100.00;101897.16;639930;1311;139229;-79
2022/11/12 15:30:40;;;;;;;136.20;65.50;;;;;;;13.61;100.00;101897.84;641478;1311;139684;-80
2022/11/12 15:46:02;;;;;;;89.10;56.20;;;;;;;13.62;100.00;101905.86;642415;1313;139736;-82
2022/11/12 16:01:25;;;;;;;75.80;39.30;;;;;;;13.37;100.00;101897.85;640805;1304;139548;-80
2022/11/12 16:16:48;;;;;;;76.60;38.70;;;;;;;13.21;100.00;101906.45;640504;1312;140480;-81
2022/11/12 16:32:12;;;;;;;143.80;62.80;;;;;;;13.29;100.00;101934.13;640894;1304;139369;-80
2022/11/12 16:47:41;;;;;;;92.40;42.50;;;;;;;13.35;100.00;101928.60;640617;1297;139468;-81
2022/11/12 17:03:04;;;;;;;60.30;29.50;;;;;;;13.26;100.00;101926.08;641045;1311;140035;-81
2022/11/12 17:18:27;;;;;;;56.80;30.30;;;;;;;13.24;100.00;101928.33;642983;1311;139508;-80
2022/11/12 17:33:51;;;;;;;67.10;37.60;;;;;;;13.23;100.00;101926.52;640097;1297;140356;-80
2022/11/12 17:49:14;;;;;;;54.60;30.40;;;;;;;13.23;100.00;101923.52;640785;1313;139376;-83
2022/11/12 18:04:36;;;;;;;41.00;24.90;;;;;;;13.24;100.00;101931.89;640432;1311;139653;-81
2022/11/12 18:19:59;;;;;;;55.70;30.60;;;;;;;13.20;100.00;101940.23;640006;1310;139406;-84
2022/11/12 18:35:22;;;;;;;53.40;28.40;;;;;;;13.15;100.00;101927.20;640775;1310;139680;-80
2022/11/12 18:50:50;;;;;;;49.40;24.60;;;;;;;13.13;100.00;101926.50;641672;1303;139380;-80
2022/11/12 19:06:14;;;;;;;42.70;24.30;;;;;;;13.11;100.00;101928.55;640994;1313;139492;-81
2022/11/12 19:21:37;;;;;;;45.80;21.60;;;;;;;13.16;100.00;101933.36;640805;1312;139272;-80
2022/11/12 19:36:59;;;;;;;36.50;20.10;;;;;;;13.17;100.00;101943.26;640862;1312;139673;-80
2022/11/12 19:52:41;;;;;;;41.90;20.70;;;;;;;13.18;100.00;101943.20;641256;1312;139848;-81
2022/11/12 20:08:04;;;;;;;59.40;36.80;;;;;;;13.22;100.00;101948.36;641934;1310;139260;-83
2022/11/12 20:23:26;;;;;;;39.60;21.10;;;;;;;13.20;100.00;101946.90;641209;1307;139600;-81
2022/11/12 20:38:52;;;;;;;34.20;20.30;;;;;;;13.25;100.00;101951.98;640788;1312;139552;-79
2022/11/12 20:54:15;;;;;;;53.20;24.70;;;;;;;13.24;100.00;101957.31;640714;1312;139328;-80
2022/11/12 21:09:37;;;;;;;50.10;24.70;;;;;;;13.29;100.00;101962.80;642149;1313;139309;-81
2022/11/12 21:25:00;;;;;;;51.30;24.80;;;;;;;13.33;100.00;101976.39;643217;1308;139821;-83
2022/11/12 21:40:24;;;;;;;52.00;25.80;;;;;;;13.39;100.00;101972.27;640228;1308;139419;-81
2022/11/12 21:55:47;;;;;;;52.60;24.20;;;;;;;13.32;100.00;101971.84;640100;1302;139565;-87
2022/11/12 22:11:11;;;;;;;51.50;24.50;;;;;;;13.29;100.00;101976.14;640199;1312;139465;-82
2022/11/12 22:26:34;;;;;;;53.60;26.40;;;;;;;13.19;100.00;101962.06;640285;1312;139459;-80
2022/11/12 22:41:56;;;;;;;48.60;24.70;;;;;;;13.30;100.00;101970.09;640134;1305;139813;-83
2022/11/12 22:57:18;;;;;;;50.50;28.20;;;;;;;13.33;100.00;101965.28;640138;1312;139250;-79
2022/11/12 23:12:39;;;;;;;48.60;23.70;;;;;;;13.33;100.00;101964.77;639924;1313;139397;-79
2022/11/12 23:47:04;;;;;;;55.80;28.30;;;;;;;13.13;100.00;101961.11;624305;1344;544852;-81
